sensor_id;sensor_type;location;lat;lon;timestamp;temperature;humidity
24772;DHT22;12870;52.274;9.754;2022-11-18T00:01:12;6.30;99.90
24772;DHT22;12870;52.274;9.754;2022-11-18T00:03:38;6.30;99.90
24772;DHT22;12870;52.274;9.754;2022-11-18T00:06:05;6.30;99.90
24772;DHT22;12870;52.274;9.754;2022-11-18T00:08:31;6.30;99.90
24772;DHT22;12870;52.274;9.754;2022-11-18T00:10:57;6.30;99.90
24772;DHT22;12870;52.274;9.754;2022-11-18T00:13:22;6.30;99.90
24772;DHT22;12870;52.274;9.754;2022-11-18T00:16:09;6.30;99.90
24772;DHT22;12870;52.274;9.754;2022-11-18T00:18:36;6.20;99.90
24772;DHT22;12870;52.274;9.754;2022-11-18T00:21:07;6.20;99.90
24772;DHT22;12870;52.274;9.754;2022-11-18T00:23:33;6.20;99.90
24772;DHT22;12870;52.274;9.754;2022-11-18T00:26:10;6.20;99.90
24772;DHT22;12870;52.274;9.754;2022-11-18T00:28:37;6.20;99.90
24772;DHT22;12870;52.274;9.754;2022-11-18T00:31:13;6.20;99.90
24772;DHT22;12870;52.274;9.754;2022-11-18T00:33:39;6.20;99.90
24772;DHT22;12870;52.274;9.754;2022-11-18T00:36:06;6.20;99.90
24772;DHT22;12870;52.274;9.754;2022-11-18T00:38:33;6.20;99.90
24772;DHT22;12870;52.274;9.754;2022-11-18T00:43:28;6.20;99.90
24772;DHT22;12870;52.274;9.754;2022-11-18T00:45:54;6.20;99.90
24772;DHT22;12870;52.274;9.754;2022-11-18T00:48:20;6.10;99.90
24772;DHT22;12870;52.274;9.754;2022-11-18T00:50:48;6.20;99.90
24772;DHT22;12870;52.274;9.754;2022-11-18T00:53:15;6.20;99.90
24772;DHT22;12870;52.274;9.754;2022-11-18T00:55:40;6.20;99.90
24772;DHT22;12870;52.274;9.754;2022-11-18T00:58:06;6.20;99.90
24772;DHT22;12870;52.274;9.754;2022-11-18T01:00:32;6.20;99.90
24772;DHT22;12870;52.274;9.754;2022-11-18T01:02:57;6.20;99.90
24772;DHT22;12870;52.274;9.754;2022-11-18T01:05:23;6.10;99.90
24772;DHT22;12870;52.274;9.754;2022-11-18T01:07:49;6.10;99.90
24772;DHT22;12870;52.274;9.754;2022-11-18T01:10:15;6.10;99.90
24772;DHT22;12870;52.274;9.754;2022-11-18T01:12:41;6.20;99.90
24772;DHT22;12870;52.274;9.754;2022-11-18T01:15:25;6.10;99.90
24772;DHT22;12870;52.274;9.754;2022-11-18T01:17:51;6.10;99.90
24772;DHT22;12870;52.274;9.754;2022-11-18T01:20:17;6.10;99.90
24772;DHT22;12870;52.274;9.754;2022-11-18T01:22:42;6.10;99.90
24772;DHT22;12870;52.274;9.754;2022-11-18T01:25:08;6.10;99.90
24772;DHT22;12870;52.274;9.754;2022-11-18T01:27:34;6.10;99.90
24772;DHT22;12870;52.274;9.754;2022-11-18T01:29:59;6.10;99.90
24772;DHT22;12870;52.274;9.754;2022-11-18T01:32:27;6.10;99.90
24772;DHT22;12870;52.274;9.754;2022-11-18T01:34:53;6.10;99.90
24772;DHT22;12870;52.274;9.754;2022-11-18T01:37:18;6.10;99.90
24772;DHT22;12870;52.274;9.754;2022-11-18T01:39:44;6.10;99.90
24772;DHT22;12870;52.274;9.754;2022-11-18T01:42:14;6.10;99.90
24772;DHT22;12870;52.274;9.754;2022-11-18T01:47:21;6.10;99.90
24772;DHT22;12870;52.274;9.754;2022-11-18T01:49:48;6.10;99.90
24772;DHT22;12870;52.274;9.754;2022-11-18T01:52:14;6.10;99.90
24772;DHT22;12870;52.274;9.754;2022-11-18T01:54:42;6.10;99.90
24772;DHT22;12870;52.274;9.754;2022-11-18T01:57:13;6.10;99.90
24772;DHT22;12870;52.274;9.754;2022-11-18T01:59:43;6.10;99.90
24772;DHT22;12870;52.274;9.754;2022-11-18T02:02:13;6.10;99.90
24772;DHT22;12870;52.274;9.754;2022-11-18T02:04:43;6.10;99.90
24772;DHT22;12870;52.274;9.754;2022-11-18T02:07:10;6.10;99.90
24772;DHT22;12870;52.274;9.754;2022-11-18T02:09:37;6.10;99.90
24772;DHT22;12870;52.274;9.754;2022-11-18T02:12:04;6.10;99.90
24772;DHT22;12870;52.274;9.754;2022-11-18T02:14:35;6.00;99.90
24772;DHT22;12870;52.274;9.754;2022-11-18T02:25:24;6.00;99.90
24772;DHT22;12870;52.274;9.754;2022-11-18T02:30:58;6.00;99.90
24772;DHT22;12870;52.274;9.754;2022-11-18T02:36:09;6.00;99.90
24772;DHT22;12870;52.274;9.754;2022-11-18T02:38:41;6.00;99.90
24772;DHT22;12870;52.274;9.754;2022-11-18T02:41:13;6.00;99.90
24772;DHT22;12870;52.274;9.754;2022-11-18T02:43:47;5.90;99.90
24772;DHT22;12870;52.274;9.754;2022-11-18T02:46:18;5.90;99.90
24772;DHT22;12870;52.274;9.754;2022-11-18T02:48:47;5.90;99.90
24772;DHT22;12870;52.274;9.754;2022-11-18T02:51:18;5.90;99.90
24772;DHT22;12870;52.274;9.754;2022-11-18T02:53:47;5.90;99.90
24772;DHT22;12870;52.274;9.754;2022-11-18T02:56:15;5.90;99.90
24772;DHT22;12870;52.274;9.754;2022-11-18T02:58:41;5.90;99.90
24772;DHT22;12870;52.274;9.754;2022-11-18T03:01:17;5.90;99.90
24772;DHT22;12870;52.274;9.754;2022-11-18T03:03:45;5.90;99.90
24772;DHT22;12870;52.274;9.754;2022-11-18T03:20:18;5.80;99.90
24772;DHT22;12870;52.274;9.754;2022-11-18T03:23:50;5.90;99.90
24772;DHT22;12870;52.274;9.754;2022-11-18T03:26:16;5.90;99.90
24772;DHT22;12870;52.274;9.754;2022-11-18T03:28:50;5.80;99.90
24772;DHT22;12870;52.274;9.754;2022-11-18T03:31:42;5.80;99.90
24772;DHT22;12870;52.274;9.754;2022-11-18T03:34:19;5.80;99.90
24772;DHT22;12870;52.274;9.754;2022-11-18T03:36:55;5.80;99.90
24772;DHT22;12870;52.274;9.754;2022-11-18T03:39:22;5.90;99.90
24772;DHT22;12870;52.274;9.754;2022-11-18T03:41:53;5.80;99.90
24772;DHT22;12870;52.274;9.754;2022-11-18T03:44:23;5.80;99.90
24772;DHT22;12870;52.274;9.754;2022-11-18T03:47:18;5.80;99.90
24772;DHT22;12870;52.274;9.754;2022-11-18T03:49:50;5.80;99.90
24772;DHT22;12870;52.274;9.754;2022-11-18T03:52:20;5.80;99.90
24772;DHT22;12870;52.274;9.754;2022-11-18T03:54:49;5.80;99.90
24772;DHT22;12870;52.274;9.754;2022-11-18T03:57:26;5.80;99.90
24772;DHT22;12870;52.274;9.754;2022-11-18T04:00:12;5.80;99.90
24772;DHT22;12870;52.274;9.754;2022-11-18T04:02:39;5.70;99.90
24772;DHT22;12870;52.274;9.754;2022-11-18T04:05:08;5.60;99.90
24772;DHT22;12870;52.274;9.754;2022-11-18T04:07:56;5.70;99.90
24772;DHT22;12870;52.274;9.754;2022-11-18T04:10:32;5.70;99.90
24772;DHT22;12870;52.274;9.754;2022-11-18T04:15:30;5.70;99.90
24772;DHT22;12870;52.274;9.754;2022-11-18T04:17:56;5.70;99.90
24772;DHT22;12870;52.274;9.754;2022-11-18T04:20:22;5.70;99.90
24772;DHT22;12870;52.274;9.754;2022-11-18T04:22:48;5.70;99.90
24772;DHT22;12870;52.274;9.754;2022-11-18T04:25:14;5.70;99.90
24772;DHT22;12870;52.274;9.754;2022-11-18T04:27:39;5.70;99.90
24772;DHT22;12870;52.274;9.754;2022-11-18T04:30:05;5.70;99.90
24772;DHT22;12870;52.274;9.754;2022-11-18T04:32:31;5.70;99.90
24772;DHT22;12870;52.274;9.754;2022-11-18T04:34:57;5.60;99.90
24772;DHT22;12870;52.274;9.754;2022-11-18T04:37:23;5.60;99.90
24772;DHT22;12870;52.274;9.754;2022-11-18T04:39:49;5.60;99.90
24772;DHT22;12870;52.274;9.754;2022-11-18T04:42:15;5.60;99.90
24772;DHT22;12870;52.274;9.754;2022-11-18T04:44:40;5.60;99.90
24772;DHT22;12870;52.274;9.754;2022-11-18T04:47:06;5.60;99.90
24772;DHT22;12870;52.274;9.754;2022-11-18T04:49:33;5.60;99.90
24772;DHT22;12870;52.274;9.754;2022-11-18T04:51:59;5.50;99.90
24772;DHT22;12870;52.274;9.754;2022-11-18T04:54:26;5.50;99.90
24772;DHT22;12870;52.274;9.754;2022-11-18T04:56:53;5.50;99.90
24772;DHT22;12870;52.274;9.754;2022-11-18T04:59:21;5.50;99.90
24772;DHT22;12870;52.274;9.754;2022-11-18T05:01:47;5.50;99.90
24772;DHT22;12870;52.274;9.754;2022-11-18T05:04:19;5.50;99.90
24772;DHT22;12870;52.274;9.754;2022-11-18T05:06:44;5.40;99.90
24772;DHT22;12870;52.274;9.754;2022-11-18T05:09:10;5.50;99.90
24772;DHT22;12870;52.274;9.754;2022-11-18T05:11:36;5.40;99.90
24772;DHT22;12870;52.274;9.754;2022-11-18T05:14:21;5.40;99.90
24772;DHT22;12870;52.274;9.754;2022-11-18T05:16:46;5.50;99.90
24772;DHT22;12870;52.274;9.754;2022-11-18T05:19:12;5.40;99.90
24772;DHT22;12870;52.274;9.754;2022-11-18T05:21:38;5.40;99.90
24772;DHT22;12870;52.274;9.754;2022-11-18T05:24:04;5.40;99.90
24772;DHT22;12870;52.274;9.754;2022-11-18T05:26:30;5.40;99.90
24772;DHT22;12870;52.274;9.754;2022-11-18T05:28:56;5.30;99.90
24772;DHT22;12870;52.274;9.754;2022-11-18T05:31:22;5.40;99.90
24772;DHT22;12870;52.274;9.754;2022-11-18T05:33:47;5.30;99.90
24772;DHT22;12870;52.274;9.754;2022-11-18T05:36:15;5.30;99.90
24772;DHT22;12870;52.274;9.754;2022-11-18T05:38:41;5.30;99.90
24772;DHT22;12870;52.274;9.754;2022-11-18T05:41:07;5.30;99.90
24772;DHT22;12870;52.274;9.754;2022-11-18T05:43:34;5.30;99.90
24772;DHT22;12870;52.274;9.754;2022-11-18T05:46:00;5.20;99.90
24772;DHT22;12870;52.274;9.754;2022-11-18T05:48:26;5.20;99.90
24772;DHT22;12870;52.274;9.754;2022-11-18T05:50:53;5.20;99.90
24772;DHT22;12870;52.274;9.754;2022-11-18T05:53:23;5.20;99.90
24772;DHT22;12870;52.274;9.754;2022-11-18T05:58:56;5.10;99.90
24772;DHT22;12870;52.274;9.754;2022-11-18T06:01:27;5.20;99.90
24772;DHT22;12870;52.274;9.754;2022-11-18T06:03:54;5.10;99.90
24772;DHT22;12870;52.274;9.754;2022-11-18T06:06:20;5.10;99.90
24772;DHT22;12870;52.274;9.754;2022-11-18T06:09:03;5.10;99.90
24772;DHT22;12870;52.274;9.754;2022-11-18T06:11:31;5.10;99.90
24772;DHT22;12870;52.274;9.754;2022-11-18T06:14:03;5.00;99.90
24772;DHT22;12870;52.274;9.754;2022-11-18T06:16:30;5.10;99.90
24772;DHT22;12870;52.274;9.754;2022-11-18T06:18:58;5.10;99.90
24772;DHT22;12870;52.274;9.754;2022-11-18T06:21:25;5.10;99.90
24772;DHT22;12870;52.274;9.754;2022-11-18T06:23:50;5.00;99.90
24772;DHT22;12870;52.274;9.754;2022-11-18T06:26:16;5.00;99.90
24772;DHT22;12870;52.274;9.754;2022-11-18T06:28:44;5.00;99.90
24772;DHT22;12870;52.274;9.754;2022-11-18T06:31:11;4.90;99.90
24772;DHT22;12870;52.274;9.754;2022-11-18T06:33:37;5.00;99.90
24772;DHT22;12870;52.274;9.754;2022-11-18T06:36:02;5.00;99.90
24772;DHT22;12870;52.274;9.754;2022-11-18T06:38:28;5.00;99.90
24772;DHT22;12870;52.274;9.754;2022-11-18T06:40:59;5.00;99.90
24772;DHT22;12870;52.274;9.754;2022-11-18T06:43:24;4.90;99.90
24772;DHT22;12870;52.274;9.754;2022-11-18T06:46:11;4.90;99.90
24772;DHT22;12870;52.274;9.754;2022-11-18T06:48:56;4.90;99.90
24772;DHT22;12870;52.274;9.754;2022-11-18T06:51:23;4.90;99.90
24772;DHT22;12870;52.274;9.754;2022-11-18T06:53:49;4.90;99.90
24772;DHT22;12870;52.274;9.754;2022-11-18T06:56:16;4.90;99.90
24772;DHT22;12870;52.274;9.754;2022-11-18T06:58:43;4.90;99.90
24772;DHT22;12870;52.274;9.754;2022-11-18T07:01:12;4.90;99.90
24772;DHT22;12870;52.274;9.754;2022-11-18T07:03:40;4.80;99.90
24772;DHT22;12870;52.274;9.754;2022-11-18T07:06:07;4.80;99.90
24772;DHT22;12870;52.274;9.754;2022-11-18T07:08:37;4.80;99.90
24772;DHT22;12870;52.274;9.754;2022-11-18T07:11:06;4.80;99.90
24772;DHT22;12870;52.274;9.754;2022-11-18T07:13:32;4.80;99.90
24772;DHT22;12870;52.274;9.754;2022-11-18T07:16:03;4.70;99.90
24772;DHT22;12870;52.274;9.754;2022-11-18T07:18:31;4.70;99.90
24772;DHT22;12870;52.274;9.754;2022-11-18T07:20:59;4.70;99.90
24772;DHT22;12870;52.274;9.754;2022-11-18T07:23:25;4.70;99.90
24772;DHT22;12870;52.274;9.754;2022-11-18T07:25:54;4.70;99.90
24772;DHT22;12870;52.274;9.754;2022-11-18T07:28:19;4.70;99.90
24772;DHT22;12870;52.274;9.754;2022-11-18T07:30:45;4.70;99.90
24772;DHT22;12870;52.274;9.754;2022-11-18T07:33:10;4.60;99.90
24772;DHT22;12870;52.274;9.754;2022-11-18T07:35:36;4.70;99.90
24772;DHT22;12870;52.274;9.754;2022-11-18T07:38:02;4.70;99.90
24772;DHT22;12870;52.274;9.754;2022-11-18T07:40:27;4.70;99.90
24772;DHT22;12870;52.274;9.754;2022-11-18T07:42:53;4.70;99.90
24772;DHT22;12870;52.274;9.754;2022-11-18T07:45:19;4.60;99.90
24772;DHT22;12870;52.274;9.754;2022-11-18T07:47:44;4.70;99.90
24772;DHT22;12870;52.274;9.754;2022-11-18T07:50:10;4.70;99.90
24772;DHT22;12870;52.274;9.754;2022-11-18T07:52:35;4.60;99.90
24772;DHT22;12870;52.274;9.754;2022-11-18T07:55:01;4.60;99.90
24772;DHT22;12870;52.274;9.754;2022-11-18T07:57:27;4.50;99.90
24772;DHT22;12870;52.274;9.754;2022-11-18T07:59:52;4.60;99.90
24772;DHT22;12870;52.274;9.754;2022-11-18T08:02:18;4.60;99.90
24772;DHT22;12870;52.274;9.754;2022-11-18T08:04:44;4.60;99.90
24772;DHT22;12870;52.274;9.754;2022-11-18T08:07:09;4.50;99.90
24772;DHT22;12870;52.274;9.754;2022-11-18T08:09:35;4.50;99.90
24772;DHT22;12870;52.274;9.754;2022-11-18T08:12:01;4.50;99.90
24772;DHT22;12870;52.274;9.754;2022-11-18T08:14:26;4.50;99.90
24772;DHT22;12870;52.274;9.754;2022-11-18T08:16:53;4.60;99.90
24772;DHT22;12870;52.274;9.754;2022-11-18T08:19:19;4.60;99.90
24772;DHT22;12870;52.274;9.754;2022-11-18T08:21:45;4.60;99.90
24772;DHT22;12870;52.274;9.754;2022-11-18T08:24:11;4.60;99.90
24772;DHT22;12870;52.274;9.754;2022-11-18T08:26:36;4.60;99.90
24772;DHT22;12870;52.274;9.754;2022-11-18T08:29:02;4.50;99.90
24772;DHT22;12870;52.274;9.754;2022-11-18T08:31:29;4.50;99.90
24772;DHT22;12870;52.274;9.754;2022-11-18T08:34:02;4.50;99.90
24772;DHT22;12870;52.274;9.754;2022-11-18T08:36:31;4.50;99.90
24772;DHT22;12870;52.274;9.754;2022-11-18T08:38:58;4.40;99.90
24772;DHT22;12870;52.274;9.754;2022-11-18T08:43:57;4.30;99.90
24772;DHT22;12870;52.274;9.754;2022-11-18T08:46:22;4.30;99.90
24772;DHT22;12870;52.274;9.754;2022-11-18T08:48:48;4.20;99.90
24772;DHT22;12870;52.274;9.754;2022-11-18T08:51:14;4.20;99.90
24772;DHT22;12870;52.274;9.754;2022-11-18T08:53:40;4.20;99.90
24772;DHT22;12870;52.274;9.754;2022-11-18T08:56:06;4.20;99.90
24772;DHT22;12870;52.274;9.754;2022-11-18T08:58:36;4.20;99.90
24772;DHT22;12870;52.274;9.754;2022-11-18T09:01:05;4.20;99.90
24772;DHT22;12870;52.274;9.754;2022-11-18T09:03:31;4.20;99.90
24772;DHT22;12870;52.274;9.754;2022-11-18T09:08:38;4.10;99.90
24772;DHT22;12870;52.274;9.754;2022-11-18T09:11:15;4.20;99.90
24772;DHT22;12870;52.274;9.754;2022-11-18T09:13:41;4.10;99.90
24772;DHT22;12870;52.274;9.754;2022-11-18T09:16:08;4.10;99.90
24772;DHT22;12870;52.274;9.754;2022-11-18T09:18:34;4.10;99.90
24772;DHT22;12870;52.274;9.754;2022-11-18T09:21:05;4.10;99.90
24772;DHT22;12870;52.274;9.754;2022-11-18T09:23:32;4.10;99.90
24772;DHT22;12870;52.274;9.754;2022-11-18T09:26:06;4.10;99.90
24772;DHT22;12870;52.274;9.754;2022-11-18T09:28:32;4.10;99.90
24772;DHT22;12870;52.274;9.754;2022-11-18T09:31:02;4.00;99.90
24772;DHT22;12870;52.274;9.754;2022-11-18T09:33:29;4.00;99.90
24772;DHT22;12870;52.274;9.754;2022-11-18T09:35:54;4.00;99.90
24772;DHT22;12870;52.274;9.754;2022-11-18T09:38:20;4.00;99.90
24772;DHT22;12870;52.274;9.754;2022-11-18T09:41:01;3.90;99.90
24772;DHT22;12870;52.274;9.754;2022-11-18T09:49:35;3.90;99.90
24772;DHT22;12870;52.274;9.754;2022-11-18T09:52:14;3.90;99.90
24772;DHT22;12870;52.274;9.754;2022-11-18T09:54:40;3.90;99.90
24772;DHT22;12870;52.274;9.754;2022-11-18T09:57:30;3.90;99.90
24772;DHT22;12870;52.274;9.754;2022-11-18T10:00:00;3.90;99.90
24772;DHT22;12870;52.274;9.754;2022-11-18T10:04:59;3.90;99.90
24772;DHT22;12870;52.274;9.754;2022-11-18T10:07:39;3.90;99.90
24772;DHT22;12870;52.274;9.754;2022-11-18T10:10:14;3.90;99.90
24772;DHT22;12870;52.274;9.754;2022-11-18T10:12:54;3.80;99.90
24772;DHT22;12870;52.274;9.754;2022-11-18T10:15:28;3.70;99.90
24772;DHT22;12870;52.274;9.754;2022-11-18T10:18:46;3.70;99.90
24772;DHT22;12870;52.274;9.754;2022-11-18T10:20:58;3.70;99.90
24772;DHT22;12870;52.274;9.754;2022-11-18T10:23:31;3.60;99.90
24772;DHT22;12870;52.274;9.754;2022-11-18T10:25:57;3.60;99.90
24772;DHT22;12870;52.274;9.754;2022-11-18T10:28:28;3.60;99.90
24772;DHT22;12870;52.274;9.754;2022-11-18T10:31:15;3.70;99.90
24772;DHT22;12870;52.274;9.754;2022-11-18T10:33:42;3.60;99.90
24772;DHT22;12870;52.274;9.754;2022-11-18T10:36:27;3.60;99.90
24772;DHT22;12870;52.274;9.754;2022-11-18T10:39:07;3.60;99.90
24772;DHT22;12870;52.274;9.754;2022-11-18T10:41:46;3.60;99.90
24772;DHT22;12870;52.274;9.754;2022-11-18T10:44:37;3.60;99.90
24772;DHT22;12870;52.274;9.754;2022-11-18T10:47:35;3.60;99.90
24772;DHT22;12870;52.274;9.754;2022-11-18T10:52:59;3.60;99.90
24772;DHT22;12870;52.274;9.754;2022-11-18T10:55:26;3.60;99.90
24772;DHT22;12870;52.274;9.754;2022-11-18T10:58:12;3.50;99.90
24772;DHT22;12870;52.274;9.754;2022-11-18T11:00:42;3.50;99.90
24772;DHT22;12870;52.274;9.754;2022-11-18T11:05:46;3.60;99.90
24772;DHT22;12870;52.274;9.754;2022-11-18T11:08:21;3.60;99.90
24772;DHT22;12870;52.274;9.754;2022-11-18T11:10:57;3.60;99.90
24772;DHT22;12870;52.274;9.754;2022-11-18T11:13:26;3.60;99.90
24772;DHT22;12870;52.274;9.754;2022-11-18T11:15:55;3.60;99.90
24772;DHT22;12870;52.274;9.754;2022-11-18T11:18:28;3.60;99.90
24772;DHT22;12870;52.274;9.754;2022-11-18T11:21:20;3.60;99.90
24772;DHT22;12870;52.274;9.754;2022-11-18T11:23:47;3.50;99.90
24772;DHT22;12870;52.274;9.754;2022-11-18T11:29:09;3.40;99.90
24772;DHT22;12870;52.274;9.754;2022-11-18T11:34:27;3.40;99.90
24772;DHT22;12870;52.274;9.754;2022-11-18T11:50:51;3.20;99.90
24772;DHT22;12870;52.274;9.754;2022-11-18T11:56:26;3.20;99.90
24772;DHT22;12870;52.274;9.754;2022-11-18T11:59:04;3.20;99.90
24772;DHT22;12870;52.274;9.754;2022-11-18T12:06:52;3.10;99.90
24772;DHT22;12870;52.274;9.754;2022-11-18T12:12:17;3.00;99.90
24772;DHT22;12870;52.274;9.754;2022-11-18T12:15:28;3.10;99.90
24772;DHT22;12870;52.274;9.754;2022-11-18T12:18:55;3.10;99.90
24772;DHT22;12870;52.274;9.754;2022-11-18T12:24:36;3.20;99.90
24772;DHT22;12870;52.274;9.754;2022-11-18T12:29:54;3.10;99.90
24772;DHT22;12870;52.274;9.754;2022-11-18T12:40:38;3.10;99.90
24772;DHT22;12870;52.274;9.754;2022-11-18T12:46:46;3.10;99.90
24772;DHT22;12870;52.274;9.754;2022-11-18T12:51:47;3.20;99.90
24772;DHT22;12870;52.274;9.754;2022-11-18T12:57:14;3.10;99.90
24772;DHT22;12870;52.274;9.754;2022-11-18T12:59:43;3.20;99.90
24772;DHT22;12870;52.274;9.754;2022-11-18T13:04:43;3.20;99.90
24772;DHT22;12870;52.274;9.754;2022-11-18T13:07:19;3.10;99.90
24772;DHT22;12870;52.274;9.754;2022-11-18T13:10:17;3.10;99.90
24772;DHT22;12870;52.274;9.754;2022-11-18T13:12:44;3.10;99.90
24772;DHT22;12870;52.274;9.754;2022-11-18T13:15:11;3.00;99.90
24772;DHT22;12870;52.274;9.754;2022-11-18T13:18:06;3.10;99.90
24772;DHT22;12870;52.274;9.754;2022-11-18T13:20:38;3.10;99.90
24772;DHT22;12870;52.274;9.754;2022-11-18T13:23:26;3.10;99.90
24772;DHT22;12870;52.274;9.754;2022-11-18T13:26:12;3.00;99.90
24772;DHT22;12870;52.274;9.754;2022-11-18T13:34:18;2.90;99.90
24772;DHT22;12870;52.274;9.754;2022-11-18T13:36:46;2.80;99.90
24772;DHT22;12870;52.274;9.754;2022-11-18T13:39:19;2.80;99.90
24772;DHT22;12870;52.274;9.754;2022-11-18T13:42:04;2.80;99.90
24772;DHT22;12870;52.274;9.754;2022-11-18T13:44:32;2.80;99.90
24772;DHT22;12870;52.274;9.754;2022-11-18T13:49:49;2.80;99.90
24772;DHT22;12870;52.274;9.754;2022-11-18T13:54:58;2.70;99.90
24772;DHT22;12870;52.274;9.754;2022-11-18T13:57:26;2.70;99.90
24772;DHT22;12870;52.274;9.754;2022-11-18T13:59:53;2.70;99.90
24772;DHT22;12870;52.274;9.754;2022-11-18T14:02:19;2.70;99.90
24772;DHT22;12870;52.274;9.754;2022-11-18T14:04:54;2.70;99.90
24772;DHT22;12870;52.274;9.754;2022-11-18T14:07:29;2.60;99.90
24772;DHT22;12870;52.274;9.754;2022-11-18T14:12:25;2.70;99.90
24772;DHT22;12870;52.274;9.754;2022-11-18T14:15:53;2.70;99.90
24772;DHT22;12870;52.274;9.754;2022-11-18T14:18:00;2.60;99.90
24772;DHT22;12870;52.274;9.754;2022-11-18T14:20:28;2.50;99.90
24772;DHT22;12870;52.274;9.754;2022-11-18T14:22:59;2.50;99.90
24772;DHT22;12870;52.274;9.754;2022-11-18T14:25:31;2.50;99.90
24772;DHT22;12870;52.274;9.754;2022-11-18T14:33:24;2.30;99.90
24772;DHT22;12870;52.274;9.754;2022-11-18T14:35:58;2.30;99.90
24772;DHT22;12870;52.274;9.754;2022-11-18T14:41:02;2.20;99.90
24772;DHT22;12870;52.274;9.754;2022-11-18T14:43:28;2.10;99.90
24772;DHT22;12870;52.274;9.754;2022-11-18T14:46:10;2.10;99.90
24772;DHT22;12870;52.274;9.754;2022-11-18T14:48:36;2.00;99.90
24772;DHT22;12870;52.274;9.754;2022-11-18T14:51:02;2.00;99.90
24772;DHT22;12870;52.274;9.754;2022-11-18T14:53:27;2.00;99.90
24772;DHT22;12870;52.274;9.754;2022-11-18T14:55:55;1.90;99.90
24772;DHT22;12870;52.274;9.754;2022-11-18T14:58:22;1.90;99.90
24772;DHT22;12870;52.274;9.754;2022-11-18T15:00:48;1.90;99.90
24772;DHT22;12870;52.274;9.754;2022-11-18T15:06:37;1.80;99.90
24772;DHT22;12870;52.274;9.754;2022-11-18T15:09:04;1.90;99.90
24772;DHT22;12870;52.274;9.754;2022-11-18T15:11:30;1.80;99.90
24772;DHT22;12870;52.274;9.754;2022-11-18T15:13:55;1.80;99.90
24772;DHT22;12870;52.274;9.754;2022-11-18T15:16:26;1.80;99.90
24772;DHT22;12870;52.274;9.754;2022-11-18T15:18:55;1.80;99.90
24772;DHT22;12870;52.274;9.754;2022-11-18T15:21:22;1.80;99.90
24772;DHT22;12870;52.274;9.754;2022-11-18T15:23:48;1.80;99.90
24772;DHT22;12870;52.274;9.754;2022-11-18T15:26:29;1.70;99.90
24772;DHT22;12870;52.274;9.754;2022-11-18T15:28:56;1.80;99.90
24772;DHT22;12870;52.274;9.754;2022-11-18T15:31:23;1.80;99.90
24772;DHT22;12870;52.274;9.754;2022-11-18T15:33:49;1.80;99.90
24772;DHT22;12870;52.274;9.754;2022-11-18T15:36:21;1.80;99.90
24772;DHT22;12870;52.274;9.754;2022-11-18T15:38:47;1.80;99.90
24772;DHT22;12870;52.274;9.754;2022-11-18T15:41:33;1.70;99.90
24772;DHT22;12870;52.274;9.754;2022-11-18T15:44:00;1.70;99.90
24772;DHT22;12870;52.274;9.754;2022-11-18T15:46:27;1.70;99.90
24772;DHT22;12870;52.274;9.754;2022-11-18T15:48:55;1.70;99.90
24772;DHT22;12870;52.274;9.754;2022-11-18T15:51:22;1.60;99.90
24772;DHT22;12870;52.274;9.754;2022-11-18T15:53:48;1.60;99.90
24772;DHT22;12870;52.274;9.754;2022-11-18T15:58:44;1.50;99.90
24772;DHT22;12870;52.274;9.754;2022-11-18T16:01:10;1.50;99.90
24772;DHT22;12870;52.274;9.754;2022-11-18T16:03:36;1.50;99.90
24772;DHT22;12870;52.274;9.754;2022-11-18T16:06:02;1.40;99.90
24772;DHT22;12870;52.274;9.754;2022-11-18T16:08:28;1.40;99.90
24772;DHT22;12870;52.274;9.754;2022-11-18T16:10:55;1.50;99.90
24772;DHT22;12870;52.274;9.754;2022-11-18T16:13:40;1.50;99.90
24772;DHT22;12870;52.274;9.754;2022-11-18T16:16:06;1.50;99.90
24772;DHT22;12870;52.274;9.754;2022-11-18T16:18:32;1.40;99.90
24772;DHT22;12870;52.274;9.754;2022-11-18T16:20:58;1.50;99.90
24772;DHT22;12870;52.274;9.754;2022-11-18T16:23:24;1.50;99.90
24772;DHT22;12870;52.274;9.754;2022-11-18T16:25:52;1.40;99.90
24772;DHT22;12870;52.274;9.754;2022-11-18T16:28:19;1.40;99.90
24772;DHT22;12870;52.274;9.754;2022-11-18T16:30:48;1.40;99.90
24772;DHT22;12870;52.274;9.754;2022-11-18T16:33:32;1.40;99.90
24772;DHT22;12870;52.274;9.754;2022-11-18T16:35:58;1.40;99.90
24772;DHT22;12870;52.274;9.754;2022-11-18T16:38:24;1.50;99.90
24772;DHT22;12870;52.274;9.754;2022-11-18T16:40:57;1.40;99.90
24772;DHT22;12870;52.274;9.754;2022-11-18T16:43:23;1.40;99.90
24772;DHT22;12870;52.274;9.754;2022-11-18T16:45:50;1.40;99.90
24772;DHT22;12870;52.274;9.754;2022-11-18T16:48:17;1.40;99.90
24772;DHT22;12870;52.274;9.754;2022-11-18T16:50:43;1.40;99.90
24772;DHT22;12870;52.274;9.754;2022-11-18T16:53:08;1.40;99.90
24772;DHT22;12870;52.274;9.754;2022-11-18T16:55:34;1.30;99.90
24772;DHT22;12870;52.274;9.754;2022-11-18T16:58:00;1.30;99.90
24772;DHT22;12870;52.274;9.754;2022-11-18T17:00:25;1.30;99.90
24772;DHT22;12870;52.274;9.754;2022-11-18T17:02:51;1.20;99.90
24772;DHT22;12870;52.274;9.754;2022-11-18T17:05:17;1.20;99.90
24772;DHT22;12870;52.274;9.754;2022-11-18T17:07:42;1.30;99.90
24772;DHT22;12870;52.274;9.754;2022-11-18T17:10:08;1.30;99.90
24772;DHT22;12870;52.274;9.754;2022-11-18T17:12:45;1.30;99.90
24772;DHT22;12870;52.274;9.754;2022-11-18T17:15:12;1.30;99.90
24772;DHT22;12870;52.274;9.754;2022-11-18T17:17:38;1.40;99.90
24772;DHT22;12870;52.274;9.754;2022-11-18T17:20:04;1.40;99.90
24772;DHT22;12870;52.274;9.754;2022-11-18T17:22:30;1.40;99.90
24772;DHT22;12870;52.274;9.754;2022-11-18T17:24:55;1.40;99.90
24772;DHT22;12870;52.274;9.754;2022-11-18T17:27:21;1.40;99.90
24772;DHT22;12870;52.274;9.754;2022-11-18T17:29:47;1.40;99.90
24772;DHT22;12870;52.274;9.754;2022-11-18T17:32:16;1.40;99.90
24772;DHT22;12870;52.274;9.754;2022-11-18T17:34:41;1.40;99.90
24772;DHT22;12870;52.274;9.754;2022-11-18T17:37:07;1.40;99.90
24772;DHT22;12870;52.274;9.754;2022-11-18T17:39:33;1.40;99.90
24772;DHT22;12870;52.274;9.754;2022-11-18T17:41:59;1.40;99.90
24772;DHT22;12870;52.274;9.754;2022-11-18T17:44:42;1.40;99.90
24772;DHT22;12870;52.274;9.754;2022-11-18T17:47:08;1.40;99.90
24772;DHT22;12870;52.274;9.754;2022-11-18T17:49:34;1.40;99.90
24772;DHT22;12870;52.274;9.754;2022-11-18T17:52:00;1.40;99.90
24772;DHT22;12870;52.274;9.754;2022-11-18T17:54:26;1.50;99.90
24772;DHT22;12870;52.274;9.754;2022-11-18T17:56:51;1.40;99.90
24772;DHT22;12870;52.274;9.754;2022-11-18T17:59:17;1.50;99.90
24772;DHT22;12870;52.274;9.754;2022-11-18T18:01:44;1.40;99.90
24772;DHT22;12870;52.274;9.754;2022-11-18T18:04:10;1.40;99.90
24772;DHT22;12870;52.274;9.754;2022-11-18T18:06:38;1.40;99.90
24772;DHT22;12870;52.274;9.754;2022-11-18T18:09:04;1.40;99.90
24772;DHT22;12870;52.274;9.754;2022-11-18T18:11:30;1.40;99.90
24772;DHT22;12870;52.274;9.754;2022-11-18T18:13:56;1.40;99.90
24772;DHT22;12870;52.274;9.754;2022-11-18T18:16:41;1.40;99.90
24772;DHT22;12870;52.274;9.754;2022-11-18T18:19:08;1.30;99.90
24772;DHT22;12870;52.274;9.754;2022-11-18T18:21:35;1.30;99.90
24772;DHT22;12870;52.274;9.754;2022-11-18T18:24:01;1.30;99.90